Time;durP1;ratioP1;P1;durP2;ratioP2;P2;SDS_P1;SDS_P2;PMS_P1;PMS_P2;Temp;Humidity;BMP_temperature;BMP_pressure;BME280_temperature;BME280_humidity;BME280_pressure;Samples;Min_cycle;Max_cycle;Signal;HPM_P1;HPM_P2
2024/04/16 00:01:59;;;;;;;6.68;4.28;;;;;;;16.12;58.57;92995.81;3628596;32;20506;-46
2024/04/16 00:04:26;;;;;;;7.05;3.53;;;;;;;16.15;58.58;93011.31;3678631;32;20138;-42
2024/04/16 00:06:54;;;;;;;9.57;4.00;;;;;;;16.16;58.74;93004.06;3617547;32;20132;-43
2024/04/16 00:09:21;;;;;;;6.97;3.78;;;;;;;16.11;58.40;93013.03;3607735;32;20130;-43
2024/04/16 00:11:48;;;;;;;5.55;3.05;;;;;;;16.18;57.37;93016.13;3617103;32;20142;-45
2024/04/16 00:14:30;;;;;;;6.68;3.10;;;;;;;16.24;57.88;93014.16;3603066;39;20169;-43
2024/04/16 00:16:58;;;;;;;6.50;3.17;;;;;;;16.37;57.37;93009.88;3663650;32;20134;-42
2024/04/16 00:19:25;;;;;;;7.18;3.30;;;;;;;16.51;56.47;93019.53;3606720;32;20564;-44
2024/04/16 00:21:52;;;;;;;7.88;2.88;;;;;;;16.43;57.02;93028.31;3646626;32;20560;-44
2024/04/16 00:24:19;;;;;;;6.00;3.00;;;;;;;16.58;57.38;93037.16;3619188;32;20150;-42
2024/04/16 00:26:46;;;;;;;5.47;2.72;;;;;;;16.60;57.21;93034.97;3645479;32;20548;-45
2024/04/16 00:29:13;;;;;;;8.13;4.00;;;;;;;16.25;58.31;93042.63;3625921;32;20131;-45
2024/04/16 00:31:40;;;;;;;6.90;3.55;;;;;;;16.43;58.00;93046.31;3630621;32;20159;-47
2024/04/16 00:34:07;;;;;;;8.18;5.32;;;;;;;16.57;57.91;93040.94;3666310;32;20503;-42
2024/04/16 00:36:34;;;;;;;6.10;3.45;;;;;;;16.59;57.90;93039.56;3687602;32;20126;-43
2024/04/16 00:39:02;;;;;;;9.05;3.25;;;;;;;16.59;57.73;93039.56;3657943;32;20524;-43
2024/04/16 00:41:29;;;;;;;5.47;3.40;;;;;;;16.27;58.25;93045.81;3666533;32;20126;-43
2024/04/16 00:43:56;;;;;;;5.70;2.75;;;;;;;16.46;58.46;93051.91;3680025;32;20130;-44
2024/04/16 00:46:23;;;;;;;7.43;3.15;;;;;;;16.42;58.45;93056.28;3618096;32;20161;-45
2024/04/16 00:48:50;;;;;;;7.50;3.05;;;;;;;16.50;58.58;93044.03;3608902;32;20608;-43
2024/04/16 00:51:18;;;;;;;7.32;2.85;;;;;;;16.52;58.06;93056.09;3639164;32;20449;-43
2024/04/16 00:53:45;;;;;;;6.63;3.60;;;;;;;16.57;57.88;93049.03;3640910;32;20560;-45
2024/04/16 00:56:12;;;;;;;9.38;3.45;;;;;;;16.29;59.13;93051.69;3656980;32;20134;-42
2024/04/16 00:58:40;;;;;;;8.48;4.22;;;;;;;16.42;59.12;93055.47;3667001;32;20147;-44
2024/04/16 01:01:07;;;;;;;7.65;3.85;;;;;;;16.46;58.64;93048.41;3621182;32;20126;-43
2024/04/16 01:03:34;;;;;;;7.50;3.10;;;;;;;16.42;59.05;93056.28;3646700;32;20130;-42
2024/04/16 01:06:03;;;;;;;5.85;3.53;;;;;;;16.31;58.98;93050.28;3658490;32;20134;-42
2024/04/16 01:08:30;;;;;;;8.77;3.10;;;;;;;16.32;59.39;93048.38;3611115;32;20170;-44
2024/04/16 01:10:57;;;;;;;10.82;3.72;;;;;;;16.37;59.34;93048.31;3611381;32;20134;-43
2024/04/16 01:13:24;;;;;;;7.13;3.60;;;;;;;16.37;59.66;93044.84;3649201;32;20524;-41
2024/04/16 01:15:51;;;;;;;5.97;3.08;;;;;;;16.33;59.51;93041.94;3650045;32;20153;-44
2024/04/16 01:18:18;;;;;;;10.38;3.40;;;;;;;16.25;59.50;93048.00;3648405;32;20138;-46
2024/04/16 01:20:45;;;;;;;5.45;2.58;;;;;;;16.27;59.45;93045.81;3641620;32;20142;-45
2024/04/16 01:23:12;;;;;;;9.70;3.97;;;;;;;16.15;59.88;93046.28;3619716;32;20131;-45
2024/04/16 01:25:42;;;;;;;5.68;3.05;;;;;;;15.99;60.66;93042.28;3669737;32;20123;-43
2024/04/16 01:28:09;;;;;;;7.05;3.70;;;;;;;16.01;60.86;93045.47;3671329;32;20492;-42
2024/04/16 01:30:36;;;;;;;5.78;3.40;;;;;;;16.01;60.45;93045.47;3674881;32;20576;-44
2024/04/16 01:33:03;;;;;;;5.20;2.70;;;;;;;15.89;60.14;93044.03;3608336;32;20130;-44
2024/04/16 01:35:30;;;;;;;7.55;3.25;;;;;;;15.43;62.30;93049.31;3602095;39;20517;-42
2024/04/16 01:37:57;;;;;;;6.78;3.92;;;;;;;15.57;62.09;93052.84;3669772;32;20491;-44
2024/04/16 01:40:24;;;;;;;5.53;3.13;;;;;;;15.69;62.08;93052.41;3691419;32;20177;-42
2024/04/16 01:42:51;;;;;;;7.18;3.22;;;;;;;15.75;61.58;93043.19;3639311;32;20143;-44
2024/04/16 01:45:19;;;;;;;5.32;2.67;;;;;;;15.75;61.33;93043.19;3644550;32;20131;-43
2024/04/16 01:47:46;;;;;;;5.60;3.00;;;;;;;15.78;61.15;93039.91;3649172;32;20153;-46
2024/04/16 01:50:13;;;;;;;6.05;3.38;;;;;;;15.65;61.47;93040.66;3632485;32;20122;-41
2024/04/16 01:52:40;;;;;;;6.32;3.05;;;;;;;15.45;61.50;93039.09;3617072;32;20151;-43
2024/04/16 01:55:07;;;;;;;6.90;4.28;;;;;;;15.26;62.71;93039.09;3673234;32;20138;-45
2024/04/16 01:57:35;;;;;;;6.50;3.13;;;;;;;15.37;62.60;93024.41;3649541;32;20169;-44
2024/04/16 02:00:03;;;;;;;6.68;3.20;;;;;;;15.36;62.77;93022.03;3657902;32;20145;-41
2024/04/16 02:02:38;;;;;;;5.85;2.95;;;;;;;15.37;62.63;93024.41;3669509;32;20135;-42
2024/04/16 02:05:06;;;;;;;12.52;4.20;;;;;;;15.38;62.54;93012.56;3688273;32;20126;-45
2024/04/16 02:07:33;;;;;;;6.20;3.30;;;;;;;15.24;63.13;93023.25;3656012;32;20130;-43
2024/04/16 02:10:00;;;;;;;6.07;3.67;;;;;;;15.34;62.92;93022.31;3666865;32;20173;-42
2024/04/16 02:12:27;;;;;;;6.65;3.33;;;;;;;15.27;62.70;93014.63;3679044;32;20214;-43
2024/04/16 02:14:54;;;;;;;7.20;4.60;;;;;;;14.94;64.31;93027.19;3649213;32;20651;-43
2024/04/16 02:17:23;;;;;;;7.78;3.85;;;;;;;15.08;64.27;93021.88;3625920;32;20576;-43
2024/04/16 02:19:50;;;;;;;6.65;3.58;;;;;;;15.04;63.98;93023.53;3707616;32;20134;-42
2024/04/16 02:22:17;;;;;;;6.30;3.75;;;;;;;15.08;63.68;93022.69;3679075;32;20592;-45
2024/04/16 02:24:44;;;;;;;7.72;4.38;;;;;;;14.97;63.39;93021.22;3629355;32;20128;-44
2024/04/16 02:27:11;;;;;;;7.07;3.85;;;;;;;15.08;63.82;93024.56;3659168;32;20580;-44
2024/04/16 02:29:38;;;;;;;7.25;5.13;;;;;;;15.13;63.92;93023.69;3631787;32;20161;-42
2024/04/16 02:32:06;;;;;;;7.03;4.72;;;;;;;15.15;63.65;93018.81;3604120;32;20470;-44
2024/04/16 02:34:33;;;;;;;6.50;3.50;;;;;;;15.04;63.63;93021.69;3654663;32;20146;-43
2024/04/16 02:37:00;;;;;;;6.53;3.50;;;;;;;15.13;63.50;93024.50;3624612;32;20165;-45
2024/04/16 02:39:27;;;;;;;6.18;4.03;;;;;;;14.99;64.04;93032.47;3678634;32;20126;-41
2024/04/16 02:41:54;;;;;;;7.70;3.85;;;;;;;15.10;63.92;93033.91;3598280;32;20123;-45
2024/04/16 02:44:21;;;;;;;6.50;3.42;;;;;;;15.05;63.36;93014.41;3646856;32;20142;-46
2024/04/16 02:46:48;;;;;;;5.78;3.17;;;;;;;15.07;63.17;93031.03;3673853;32;20158;-41
2024/04/16 02:49:15;;;;;;;7.75;4.03;;;;;;;14.95;63.60;93027.97;3686037;32;20150;-42
2024/04/16 02:51:42;;;;;;;7.80;4.30;;;;;;;14.94;64.02;93019.13;3628362;32;20154;-42
2024/04/16 02:54:09;;;;;;;7.90;4.18;;;;;;;14.91;64.08;93038.47;3669648;32;20142;-41
2024/04/16 02:58:47;;;;;;;7.40;4.15;;;;;;;14.82;65.29;93027.59;3647241;39;20614;-41
2024/04/16 03:01:14;;;;;;;8.00;4.32;;;;;;;14.52;66.35;93041.34;3681691;31;20141;-44
2024/04/16 03:03:41;;;;;;;8.50;5.22;;;;;;;14.52;66.71;93036.78;3694225;31;20136;-43
2024/04/16 03:06:08;;;;;;;6.75;3.58;;;;;;;14.57;66.30;93023.34;3706511;31;20129;-41
2024/04/16 03:08:35;;;;;;;10.98;3.97;;;;;;;14.62;65.88;93023.28;3675655;31;20114;-41
2024/04/16 03:11:02;;;;;;;8.55;4.53;;;;;;;14.66;65.29;93026.22;3689223;31;20559;-42
2024/04/16 03:13:29;;;;;;;6.95;3.67;;;;;;;14.67;65.20;93023.22;3700462;31;20144;-43
2024/04/16 03:15:56;;;;;;;9.25;4.95;;;;;;;14.65;65.51;93019.22;3632399;39;20196;-43
2024/04/16 03:18:23;;;;;;;6.38;3.97;;;;;;;14.63;65.48;93002.63;3682279;31;20477;-42
2024/04/16 03:21:00;;;;;;;13.07;4.78;;;;;;;14.25;66.95;93007.88;3695633;31;20188;-41
2024/04/16 03:23:27;;;;;;;8.30;5.18;;;;;;;14.44;66.58;93021.31;3669797;31;20137;-41
2024/04/16 03:25:54;;;;;;;8.43;4.47;;;;;;;14.54;66.33;93009.69;3681972;31;20587;-40
2024/04/16 03:28:21;;;;;;;9.10;4.78;;;;;;;14.59;66.28;93015.81;3669147;31;20133;-41
2024/04/16 03:30:50;;;;;;;7.95;4.85;;;;;;;14.59;66.05;93013.13;3667666;31;20137;-41
2024/04/16 03:33:17;;;;;;;6.90;3.75;;;;;;;14.61;65.61;93019.00;3711263;31;20137;-42
2024/04/16 03:35:52;;;;;;;7.18;5.00;;;;;;;14.56;65.93;93012.91;3680639;31;20137;-41
2024/04/16 03:38:19;;;;;;;;;;;;;;;14.54;66.51;93013.16;3702701;31;20137;-40
2024/04/16 03:40:55;;;;;;;11.18;4.07;;;;;;;14.52;66.35;93015.34;3707750;31;20017;-45
2024/04/16 03:43:22;;;;;;;16.90;5.13;;;;;;;14.53;66.63;93014.25;3688975;31;20148;-41
2024/04/16 03:45:56;;;;;;;9.20;4.97;;;;;;;14.54;66.34;93015.06;3632158;39;20192;-40
2024/04/16 03:48:24;;;;;;;9.55;4.53;;;;;;;14.44;66.54;93019.44;3660118;31;20129;-42
2024/04/16 03:50:52;;;;;;;7.18;5.20;;;;;;;14.34;67.44;93016.91;3652839;31;20143;-41
2024/04/16 03:53:19;;;;;;;12.95;5.10;;;;;;;14.39;67.25;93011.47;3702346;31;20130;-42
2024/04/16 03:55:46;;;;;;;10.00;4.72;;;;;;;14.37;66.99;93026.25;3636296;31;20129;-41
2024/04/16 03:58:13;;;;;;;12.20;4.35;;;;;;;14.43;67.04;93020.53;3725653;31;20440;-41
2024/04/16 04:03:27;;;;;;;8.43;4.50;;;;;;;14.40;66.89;93026.47;3661961;31;20146;-41
2024/04/16 04:05:54;;;;;;;8.80;4.80;;;;;;;14.44;66.33;93032.84;3690704;31;20125;-41
2024/04/16 04:08:22;;;;;;;10.35;6.95;;;;;;;14.19;68.00;93035.78;3688780;31;20181;-53
2024/04/16 04:10:49;;;;;;;13.80;6.03;;;;;;;14.16;68.05;93031.81;3625125;39;20475;-51
2024/04/16 04:13:16;;;;;;;9.70;5.63;;;;;;;14.20;68.22;93032.06;3680197;31;20133;-46
2024/04/16 04:15:43;;;;;;;10.48;5.60;;;;;;;14.27;67.99;93044.03;3676659;31;20137;-41
2024/04/16 04:18:11;;;;;;;13.95;5.20;;;;;;;14.25;67.79;93045.38;3648459;31;20594;-41
2024/04/16 04:20:38;;;;;;;8.60;5.28;;;;;;;14.30;67.46;93040.00;3687959;31;20465;-41
2024/04/16 04:23:06;;;;;;;11.07;6.25;;;;;;;14.16;68.54;93047.88;3713455;31;20423;-41
2024/04/16 04:25:33;;;;;;;18.52;9.77;;;;;;;14.09;68.86;93029.47;3677998;31;20133;-42
2024/04/16 04:28:00;;;;;;;17.73;9.40;;;;;;;14.04;68.83;93040.25;3655200;32;20162;-41
2024/04/16 04:30:27;;;;;;;13.30;8.60;;;;;;;14.06;69.22;93048.81;3624827;39;20570;-45
2024/04/16 04:32:54;;;;;;;12.07;7.78;;;;;;;14.14;69.05;93036.66;3671295;31;20591;-42
2024/04/16 04:35:22;;;;;;;13.48;6.25;;;;;;;14.19;68.67;93041.16;3661853;31;20129;-42
2024/04/16 04:37:49;;;;;;;12.85;7.47;;;;;;;13.92;70.18;93044.38;3695586;31;20130;-40
2024/04/16 04:40:16;;;;;;;9.68;5.93;;;;;;;13.99;69.79;93032.25;3664382;31;20570;-43
2024/04/16 04:42:43;;;;;;;10.70;6.28;;;;;;;14.10;69.33;93030.25;3667919;32;20137;-42
2024/04/16 04:45:10;;;;;;;9.23;4.95;;;;;;;14.18;68.64;93024.28;3689496;31;20134;-42
2024/04/16 04:47:37;;;;;;;8.73;5.95;;;;;;;14.26;67.91;93021.00;3675500;32;20125;-42
2024/04/16 04:50:05;;;;;;;12.73;8.73;;;;;;;14.29;68.22;93028.47;3643013;31;20133;-43
2024/04/16 04:52:32;;;;;;;21.63;9.07;;;;;;;14.34;68.13;93032.97;3648799;31;20125;-42
2024/04/16 04:55:02;;;;;;;54.58;24.08;;;;;;;14.19;68.82;93033.94;3694740;31;20129;-44
2024/04/16 04:57:29;;;;;;;55.50;18.88;;;;;;;14.28;68.47;93040.25;3695027;31;20133;-42
2024/04/16 04:59:56;;;;;;;21.75;11.30;;;;;;;14.32;68.51;93043.19;3707469;31;20137;-42
2024/04/16 05:02:24;;;;;;;24.85;13.27;;;;;;;14.40;68.74;93042.56;3667804;32;20196;-42
2024/04/16 05:04:51;;;;;;;21.95;11.48;;;;;;;14.39;69.10;93040.94;3685895;31;20157;-42
2024/04/16 05:07:18;;;;;;;17.45;9.50;;;;;;;14.51;69.17;93043.25;3641693;31;20137;-41
2024/04/16 05:09:45;;;;;;;22.90;12.02;;;;;;;14.39;69.56;93038.28;3668388;31;20129;-42
2024/04/16 05:12:12;;;;;;;20.88;10.45;;;;;;;14.55;69.29;93035.41;3670309;32;20136;-43
2024/04/16 05:14:39;;;;;;;17.77;9.80;;;;;;;14.56;68.84;93026.31;3670463;31;20184;-42
2024/04/16 05:17:06;;;;;;;18.23;10.32;;;;;;;14.37;69.44;93026.25;3677938;31;20480;-43
2024/04/16 05:19:34;;;;;;;23.05;10.60;;;;;;;14.47;68.63;93021.56;3628571;32;20141;-42
2024/04/16 05:22:01;;;;;;;15.60;9.27;;;;;;;14.57;68.63;93017.97;3648954;31;20157;-42
2024/04/16 05:24:28;;;;;;;23.35;7.22;;;;;;;14.54;68.79;93015.84;3700049;31;20130;-43
2024/04/16 05:26:55;;;;;;;13.73;8.30;;;;;;;14.58;68.20;93005.38;3655263;32;20591;-41
2024/04/16 05:29:22;;;;;;;12.45;4.82;;;;;;;14.37;68.25;93002.13;3682122;31;20500;-40
2024/04/16 05:31:49;;;;;;;10.23;3.80;;;;;;;14.56;67.37;93007.56;3660736;31;20137;-40
2024/04/16 05:34:16;;;;;;;7.38;3.63;;;;;;;14.54;66.69;92996.28;3707917;31;20129;-44
2024/04/16 05:36:43;;;;;;;8.10;4.00;;;;;;;14.74;67.23;93003.28;3626612;31;20145;-43
2024/04/16 05:39:10;;;;;;;13.07;4.50;;;;;;;14.82;66.80;92997.28;3642462;32;20479;-42
2024/04/16 05:41:37;;;;;;;8.25;5.35;;;;;;;15.05;66.65;92995.63;3684462;31;20125;-43
2024/04/16 05:44:04;;;;;;;10.80;4.07;;;;;;;15.26;65.39;92990.78;3671682;31;20133;-43
2024/04/16 05:46:32;;;;;;;8.73;3.50;;;;;;;15.31;64.88;92999.53;3640039;31;20129;-42
2024/04/16 05:48:59;;;;;;;6.85;4.32;;;;;;;15.51;63.80;92982.31;3682802;31;20117;-43
2024/04/16 05:51:26;;;;;;;8.13;4.45;;;;;;;15.76;64.82;92984.88;3635700;31;20491;-40
2024/04/16 05:53:53;;;;;;;9.70;5.03;;;;;;;15.85;64.41;92988.47;3662752;31;20137;-40
2024/04/16 05:56:20;;;;;;;10.02;3.60;;;;;;;16.01;63.26;92973.69;3664635;31;20801;-41
2024/04/16 05:58:47;;;;;;;9.30;3.60;;;;;;;16.10;62.93;92982.66;3692602;32;20133;-40
2024/04/16 06:01:15;;;;;;;8.95;4.07;;;;;;;16.24;63.42;92974.59;3714443;31;20595;-41
2024/04/16 06:03:42;;;;;;;8.57;3.75;;;;;;;16.31;62.76;92983.06;3647024;31;20133;-41
2024/04/16 06:06:09;;;;;;;6.97;4.13;;;;;;;16.46;62.97;92973.13;3658458;31;20129;-42
2024/04/16 06:08:37;;;;;;;6.70;4.18;;;;;;;16.63;62.78;92975.97;3623909;31;20133;-40
2024/04/16 06:11:04;;;;;;;10.40;5.28;;;;;;;16.77;62.25;92965.22;3659378;31;20267;-42
2024/04/16 06:13:31;;;;;;;13.90;4.88;;;;;;;16.96;61.61;92961.59;3677248;32;20168;-41
2024/04/16 06:15:58;;;;;;;14.43;6.18;;;;;;;17.19;61.51;92957.03;3626613;31;20129;-40
2024/04/16 06:18:25;;;;;;;11.25;4.95;;;;;;;17.32;61.20;92946.22;3659018;32;20141;-42
2024/04/16 06:20:52;;;;;;;11.07;4.90;;;;;;;17.50;60.59;92940.97;3678899;31;20129;-40
2024/04/16 06:23:21;;;;;;;17.88;4.53;;;;;;;17.60;59.94;92956.06;3692392;31;20129;-41
2024/04/16 06:25:49;;;;;;;9.27;5.05;;;;;;;17.80;60.80;92944.78;3634360;31;20134;-41
2024/04/16 06:28:16;;;;;;;15.07;5.28;;;;;;;17.76;60.04;92944.59;3650839;32;20137;-41
2024/04/16 06:30:43;;;;;;;12.10;5.00;;;;;;;17.82;61.06;92948.00;3679531;31;20138;-45
2024/04/16 06:33:12;;;;;;;9.90;4.30;;;;;;;17.93;58.47;92940.44;3691736;31;20136;-44
2024/04/16 06:35:39;;;;;;;14.85;5.70;;;;;;;18.07;59.50;92927.69;3648958;31;20479;-40
2024/04/16 06:38:06;;;;;;;9.93;3.38;;;;;;;18.03;57.95;92932.09;3708962;31;20145;-41
2024/04/16 06:40:33;;;;;;;9.63;3.85;;;;;;;18.17;58.29;92924.69;3679249;31;20142;-42
2024/04/16 06:43:00;;;;;;;10.23;4.32;;;;;;;18.10;59.04;92918.16;3633365;31;20455;-42
2024/04/16 06:45:27;;;;;;;8.25;4.00;;;;;;;18.26;57.66;92916.63;3663068;31;20125;-41
2024/04/16 06:47:54;;;;;;;22.30;5.07;;;;;;;18.34;57.45;92915.06;3674064;31;20138;-41
2024/04/16 06:50:21;;;;;;;8.82;4.72;;;;;;;18.45;50.60;92904.78;3637767;31;20153;-41
2024/04/16 06:52:48;;;;;;;10.10;3.67;;;;;;;18.62;49.00;92906.72;3646308;31;20137;-42
2024/04/16 06:55:15;;;;;;;21.38;5.32;;;;;;;18.72;53.67;92901.81;3659723;32;20129;-41
2024/04/16 06:57:43;;;;;;;9.80;3.33;;;;;;;18.93;50.47;92906.63;3639017;31;20137;-41
2024/04/16 07:00:11;;;;;;;11.25;4.30;;;;;;;19.14;50.23;92906.81;3658233;31;20573;-42
2024/04/16 07:02:38;;;;;;;10.07;4.72;;;;;;;19.32;46.14;92911.06;3666113;31;20567;-44
2024/04/16 07:05:05;;;;;;;9.80;3.40;;;;;;;19.44;44.19;92905.03;3635702;31;20137;-42
2024/04/16 07:07:33;;;;;;;9.38;3.03;;;;;;;19.53;41.90;92907.72;3631344;31;20490;-42
2024/04/16 07:10:00;;;;;;;10.23;2.85;;;;;;;19.60;41.02;92908.00;3645628;32;20130;-41
2024/04/16 07:12:28;;;;;;;13.15;2.50;;;;;;;19.63;42.16;92901.97;3621803;39;20140;-41
2024/04/16 07:14:55;;;;;;;12.05;3.35;;;;;;;19.67;40.48;92904.81;3691016;31;20145;-41
2024/04/16 07:17:22;;;;;;;7.90;2.35;;;;;;;19.70;37.70;92899.59;3674930;31;20138;-41
2024/04/16 07:19:49;;;;;;;13.27;2.58;;;;;;;19.63;39.17;92899.28;3621820;31;20149;-41
2024/04/16 07:22:16;;;;;;;7.57;2.35;;;;;;;19.62;36.45;92899.59;3680504;31;20599;-41
2024/04/16 07:24:43;;;;;;;9.98;3.53;;;;;;;19.70;37.18;92898.81;3650512;31;20564;-42
2024/04/16 07:27:10;;;;;;;6.43;1.90;;;;;;;19.72;35.64;92889.25;3688410;31;20134;-42
2024/04/16 07:29:38;;;;;;;6.65;4.00;;;;;;;19.74;34.31;92886.25;3676575;31;20496;-41
2024/04/16 07:32:05;;;;;;;9.30;2.33;;;;;;;19.94;33.94;92890.94;3710492;31;20212;-40
2024/04/16 07:34:32;;;;;;;8.82;2.35;;;;;;;20.04;34.72;92878.97;3675701;32;20156;-43
2024/04/16 07:36:59;;;;;;;7.72;3.03;;;;;;;20.15;35.17;92882.09;3640416;31;20142;-41
2024/04/16 07:39:26;;;;;;;13.27;2.22;;;;;;;20.34;35.06;92884.41;3626022;32;20149;-42
2024/04/16 07:41:53;;;;;;;7.75;2.03;;;;;;;20.40;33.32;92881.19;3621112;39;20460;-41
2024/04/16 07:44:20;;;;;;;9.35;2.00;;;;;;;20.54;35.17;92889.06;3652723;31;20137;-42
2024/04/16 07:46:47;;;;;;;9.98;2.85;;;;;;;20.48;33.25;92884.16;3650742;31;20468;-42
2024/04/16 07:49:14;;;;;;;10.13;3.28;;;;;;;20.70;34.40;92883.13;3623417;39;20134;-41
2024/04/16 07:51:41;;;;;;;10.77;2.85;;;;;;;20.77;34.28;92883.38;3636305;31;20158;-44
2024/04/16 07:54:08;;;;;;;24.88;3.85;;;;;;;20.90;35.65;92885.03;3700314;31;20149;-43
2024/04/16 07:56:35;;;;;;;7.97;2.20;;;;;;;20.96;35.70;92875.59;3671441;31;20138;-42
2024/04/16 07:59:02;;;;;;;10.95;4.00;;;;;;;20.97;35.18;92879.09;3675211;32;20594;-42
2024/04/16 08:01:30;;;;;;;7.53;2.78;;;;;;;20.96;36.94;92875.59;3647702;31;20556;-43
2024/04/16 08:03:57;;;;;;;7.80;2.70;;;;;;;20.98;34.58;92862.50;3668521;31;20134;-42
2024/04/16 08:06:24;;;;;;;7.32;2.97;;;;;;;20.95;33.00;92870.50;3680306;31;20484;-42
2024/04/16 08:08:51;;;;;;;12.73;2.92;;;;;;;20.96;34.80;92866.69;3684538;31;20133;-42
2024/04/16 08:11:18;;;;;;;12.43;2.60;;;;;;;21.00;33.35;92873.03;3704101;31;20141;-42
2024/04/16 08:13:46;;;;;;;12.77;3.42;;;;;;;21.00;33.98;92871.09;3632925;31;20129;-43
2024/04/16 08:16:14;;;;;;;10.27;2.42;;;;;;;21.13;33.98;92871.16;3681357;31;20440;-50
2024/04/16 08:18:41;;;;;;;12.10;2.92;;;;;;;21.23;34.05;92873.47;3682403;32;20149;-50
2024/04/16 08:21:08;;;;;;;7.78;2.85;;;;;;;21.38;33.03;92872.84;3658257;32;20176;-50
2024/04/16 08:23:35;;;;;;;10.82;4.60;;;;;;;21.44;31.52;92870.75;3717195;31;20133;-42
2024/04/16 08:26:04;;;;;;;6.85;2.30;;;;;;;21.54;31.38;92856.78;3659168;31;20153;-41
2024/04/16 08:28:32;;;;;;;13.48;4.30;;;;;;;21.67;32.66;92852.19;3690851;31;20139;-41
2024/04/16 08:31:00;;;;;;;18.20;2.78;;;;;;;21.77;32.83;92853.69;3702327;31;20216;-43
2024/04/16 08:33:28;;;;;;;12.50;2.70;;;;;;;21.73;31.99;92858.97;3658226;31;20473;-43
2024/04/16 08:35:56;;;;;;;9.18;2.65;;;;;;;21.81;32.18;92865.44;3629105;31;20611;-41
2024/04/16 08:38:24;;;;;;;14.30;2.70;;;;;;;21.92;32.44;92866.59;3638000;31;20137;-42
2024/04/16 08:40:51;;;;;;;13.23;3.00;;;;;;;21.96;32.19;92859.34;3675585;31;20170;-41
2024/04/16 08:43:20;;;;;;;15.27;3.40;;;;;;;22.21;31.99;92843.09;3687282;31;20591;-41
2024/04/16 08:45:49;;;;;;;13.40;2.95;;;;;;;22.32;31.45;92848.88;3667934;31;20141;-42
2024/04/16 08:48:17;;;;;;;12.85;3.13;;;;;;;22.53;32.82;92846.84;3662831;31;20133;-44
2024/04/16 08:50:46;;;;;;;15.57;3.17;;;;;;;22.55;31.17;92846.50;3678484;31;20141;-46
2024/04/16 08:53:13;;;;;;;12.43;3.58;;;;;;;22.67;32.64;92832.13;3668384;31;20140;-42
2024/04/16 08:55:41;;;;;;;14.23;3.22;;;;;;;22.82;31.53;92832.19;3643414;31;20137;-46
2024/04/16 08:58:08;;;;;;;12.15;3.50;;;;;;;22.80;32.00;92837.16;3681230;31;20138;-44
2024/04/16 09:00:35;;;;;;;14.35;4.07;;;;;;;22.86;31.65;92847.81;3674581;31;20130;-42
2024/04/16 09:03:03;;;;;;;14.30;3.67;;;;;;;22.86;32.47;92835.00;3641970;31;20165;-42
2024/04/16 09:05:32;;;;;;;21.90;4.32;;;;;;;22.91;32.22;92842.13;3693431;31;20134;-43
2024/04/16 09:07:59;;;;;;;;;;;;;;;22.95;31.10;92843.03;3623237;39;20141;-42
2024/04/16 09:10:26;;;;;;;21.25;3.17;;;;;;;22.63;31.09;92848.28;3637146;32;20010;-43
2024/04/16 09:12:54;;;;;;;15.05;2.75;;;;;;;22.65;31.14;92853.41;3655217;31;20134;-41
2024/04/16 09:15:21;;;;;;;15.57;3.20;;;;;;;22.40;31.00;92848.78;3690036;31;20129;-42
2024/04/16 09:17:50;;;;;;;14.18;3.03;;;;;;;22.43;32.11;92839.16;3665570;31;20134;-44
2024/04/16 09:20:21;;;;;;;12.73;2.95;;;;;;;22.51;32.53;92840.16;3635649;31;20583;-41
2024/04/16 09:22:50;;;;;;;9.85;2.80;;;;;;;22.62;32.25;92835.88;3684885;31;20584;-42
2024/04/16 09:25:17;;;;;;;;;;;;;;;22.72;32.66;92840.03;3667377;31;20582;-42
2024/04/16 09:27:54;;;;;;;14.43;4.10;;;;;;;22.80;32.17;92831.75;3652939;31;20360;-42
2024/04/16 09:30:22;;;;;;;21.08;6.78;;;;;;;22.79;31.82;92826.66;3676044;31;20138;-42
2024/04/16 09:33:01;;;;;;;16.30;5.40;;;;;;;22.87;32.44;92833.88;3697972;31;20129;-43
2024/04/16 09:35:30;;;;;;;12.02;3.47;;;;;;;22.82;31.20;92825.97;3708251;31;20163;-43
2024/04/16 09:38:02;;;;;;;17.00;3.72;;;;;;;22.72;32.10;92824.50;3712326;31;20146;-42
2024/04/16 09:40:30;;;;;;;18.50;3.83;;;;;;;22.58;31.51;92824.09;3630014;31;20126;-42
2024/04/16 09:43:02;;;;;;;25.23;7.13;;;;;;;22.72;32.50;92821.00;3711296;31;20173;-43
2024/04/16 09:45:30;;;;;;;16.05;4.68;;;;;;;22.86;32.55;92812.50;3657090;32;20177;-42
2024/04/16 09:47:58;;;;;;;17.83;3.38;;;;;;;22.87;32.13;92809.41;3668736;31;20150;-41
2024/04/16 09:50:26;;;;;;;15.15;4.00;;;;;;;22.78;32.21;92809.56;3677038;31;20189;-43
2024/04/16 09:52:56;;;;;;;;;;;;;;;22.90;32.71;92807.97;3684447;31;20133;-43
2024/04/16 09:55:23;;;;;;;16.40;4.25;;;;;;;22.89;32.69;92803.66;3622596;31;20019;-44
2024/04/16 09:57:52;;;;;;;18.85;3.90;;;;;;;22.83;32.96;92805.84;3696327;31;20548;-43
2024/04/16 10:00:20;;;;;;;18.52;3.47;;;;;;;22.55;32.68;92813.91;3670676;31;20125;-41
2024/04/16 10:02:48;;;;;;;16.55;4.47;;;;;;;22.63;33.62;92811.06;3660095;32;20137;-42
2024/04/16 10:05:15;;;;;;;15.68;4.07;;;;;;;22.73;33.02;92812.53;3678265;31;20611;-42
2024/04/16 10:07:47;;;;;;;11.43;3.30;;;;;;;22.59;33.88;92803.94;3719683;31;20461;-45
2024/04/16 10:10:16;;;;;;;16.35;3.15;;;;;;;22.61;33.76;92809.84;3679173;31;20121;-46
2024/04/16 10:12:43;;;;;;;13.20;3.53;;;;;;;22.39;33.44;92811.91;3686712;31;20598;-42
2024/04/16 10:15:13;;;;;;;21.42;3.72;;;;;;;22.42;33.19;92808.53;3643378;31;20126;-43
2024/04/16 10:17:51;;;;;;;16.23;4.22;;;;;;;22.38;33.81;92804.91;3630732;31;20129;-44
2024/04/16 10:20:23;;;;;;;12.30;4.05;;;;;;;22.45;33.46;92798.09;3663762;31;20145;-42
2024/04/16 10:22:54;;;;;;;17.17;4.05;;;;;;;22.40;33.63;92788.25;3700854;31;20481;-47
2024/04/16 10:25:33;;;;;;;21.27;3.90;;;;;;;22.49;33.84;92777.25;3693660;31;20477;-45
2024/04/16 10:28:04;;;;;;;17.65;4.60;;;;;;;22.38;33.57;92779.66;3677931;32;20145;-50
2024/04/16 10:30:35;;;;;;;18.73;4.53;;;;;;;22.43;33.84;92774.81;3651507;31;20130;-46
2024/04/16 10:33:04;;;;;;;16.80;3.53;;;;;;;22.39;33.59;92775.84;3692745;31;20142;-44
2024/04/16 10:35:33;;;;;;;18.40;4.38;;;;;;;22.56;34.96;92774.78;3697254;31;20564;-45
2024/04/16 10:38:04;;;;;;;19.58;2.75;;;;;;;22.62;33.89;92776.91;3665669;31;20135;-43
2024/04/16 10:40:31;;;;;;;20.20;3.97;;;;;;;22.65;34.65;92775.44;3654582;32;20125;-42
2024/04/16 10:43:03;;;;;;;13.65;2.95;;;;;;;22.71;34.65;92768.63;3660286;31;20145;-45
2024/04/16 10:45:30;;;;;;;14.98;3.38;;;;;;;22.79;34.57;92770.41;3635528;31;20145;-42
2024/04/16 10:47:58;;;;;;;17.15;3.55;;;;;;;22.86;34.13;92766.31;3670744;31;20133;-43
2024/04/16 10:50:25;;;;;;;25.27;5.20;;;;;;;22.96;35.12;92754.97;3648861;31;20473;-42
2024/04/16 10:52:52;;;;;;;22.45;4.65;;;;;;;22.93;33.65;92759.16;3673726;31;20141;-43
2024/04/16 10:55:20;;;;;;;22.52;4.53;;;;;;;23.12;33.81;92757.75;3685790;32;20138;-42
2024/04/16 10:57:49;;;;;;;22.25;6.75;;;;;;;23.18;33.65;92759.09;3700472;31;20153;-48
2024/04/16 11:00:17;;;;;;;20.70;3.95;;;;;;;23.31;33.27;92747.00;3630059;31;20141;-43
2024/04/16 11:02:45;;;;;;;25.67;4.57;;;;;;;23.12;32.49;92744.94;3657591;31;20603;-42
2024/04/16 11:05:17;;;;;;;21.73;4.80;;;;;;;23.35;32.67;92736.22;3691744;31;20190;-42
2024/04/16 11:07:44;;;;;;;14.85;3.47;;;;;;;23.54;32.15;92728.16;3652181;31;20129;-42
2024/04/16 11:10:12;;;;;;;20.83;4.57;;;;;;;23.60;31.71;92731.44;3615641;32;20133;-43
2024/04/16 11:12:39;;;;;;;24.88;4.88;;;;;;;23.69;31.61;92726.59;3644120;31;20667;-41
2024/04/16 11:15:08;;;;;;;26.75;4.78;;;;;;;23.80;32.16;92726.88;3621892;32;20143;-43
2024/04/16 11:17:35;;;;;;;24.08;4.97;;;;;;;23.73;32.16;92727.47;3671240;31;20138;-42
2024/04/16 11:20:03;;;;;;;23.95;3.63;;;;;;;23.85;32.78;92723.88;3693062;31;20134;-48
2024/04/16 11:22:31;;;;;;;;;;;;;;;23.82;32.00;92736.25;3702296;31;20135;-46
2024/04/16 11:24:58;;;;;;;25.42;4.20;;;;;;;23.75;31.56;92729.84;3669832;31;20022;-42
2024/04/16 11:27:25;;;;;;;18.70;5.43;;;;;;;23.83;31.81;92729.69;3652708;32;20138;-44
2024/04/16 11:29:52;;;;;;;27.40;4.65;;;;;;;23.53;31.74;92729.28;3670700;31;20556;-46
2024/04/16 11:32:21;;;;;;;27.65;4.40;;;;;;;23.78;32.33;92726.44;3704809;31;20139;-46
2024/04/16 11:34:48;;;;;;;23.08;5.32;;;;;;;23.61;31.79;92724.84;3651692;31;20130;-42
2024/04/16 11:37:17;;;;;;;29.15;6.82;;;;;;;23.50;32.34;92731.94;3681194;31;20130;-43